sensor_id;sensor_type;location;lat;lon;timestamp;pressure;altitude;pressure_sealevel;temperature;humidity
64544;BME280;50936;51.660;5.616;2023-06-14T00:02:04;101121.53;;;26.53;37.49
64544;BME280;50936;51.660;5.616;2023-06-14T00:04:31;101119.81;;;26.51;37.44
64544;BME280;50936;51.660;5.616;2023-06-14T00:06:58;101117.03;;;26.51;37.22
64544;BME280;50936;51.660;5.616;2023-06-14T00:09:24;101118.75;;;26.53;37.27
64544;BME280;50936;51.660;5.616;2023-06-14T00:11:51;101121.53;;;26.53;37.27
64544;BME280;50936;51.660;5.616;2023-06-14T00:14:18;101119.81;;;26.51;37.04
64544;BME280;50936;51.660;5.616;2023-06-14T00:16:45;101115.34;;;26.50;36.87
64544;BME280;50936;51.660;5.616;2023-06-14T00:19:12;101115.34;;;26.50;36.91
64544;BME280;50936;51.660;5.616;2023-06-14T00:21:38;101118.13;;;26.50;36.75
64544;BME280;50936;51.660;5.616;2023-06-14T00:24:05;101118.13;;;26.50;36.42
64544;BME280;50936;51.660;5.616;2023-06-14T00:26:32;101114.66;;;26.48;36.72
64544;BME280;50936;51.660;5.616;2023-06-14T00:28:59;101121.94;;;26.49;36.58
64544;BME280;50936;51.660;5.616;2023-06-14T00:31:26;101122.78;;;26.50;36.61
64544;BME280;50936;51.660;5.616;2023-06-14T00:33:53;101127.47;;;26.49;36.57
64544;BME280;50936;51.660;5.616;2023-06-14T00:36:20;101122.78;;;26.50;36.44
64544;BME280;50936;51.660;5.616;2023-06-14T00:38:47;101118.53;;;26.47;36.50
64544;BME280;50936;51.660;5.616;2023-06-14T00:41:14;101119.56;;;26.46;36.16
64544;BME280;50936;51.660;5.616;2023-06-14T00:43:41;101126.19;;;26.45;36.14
64544;BME280;50936;51.660;5.616;2023-06-14T00:46:08;101126.19;;;26.45;36.06
64544;BME280;50936;51.660;5.616;2023-06-14T00:48:36;101119.75;;;26.45;36.01
64544;BME280;50936;51.660;5.616;2023-06-14T00:51:05;101126.19;;;26.45;36.06
64544;BME280;50936;51.660;5.616;2023-06-14T00:53:32;101127.22;;;26.44;35.84
64544;BME280;50936;51.660;5.616;2023-06-14T00:56:03;101122.75;;;26.43;35.88
64544;BME280;50936;51.660;5.616;2023-06-14T00:58:30;101124.47;;;26.44;35.71
64544;BME280;50936;51.660;5.616;2023-06-14T01:00:57;101123.63;;;26.44;35.69
64544;BME280;50936;51.660;5.616;2023-06-14T01:03:25;101129.16;;;26.44;35.69
64544;BME280;50936;51.660;5.616;2023-06-14T01:05:58;101124.47;;;26.44;35.68
64544;BME280;50936;51.660;5.616;2023-06-14T01:08:41;101132.13;;;26.42;35.60
64544;BME280;50936;51.660;5.616;2023-06-14T01:11:22;101128.69;;;26.40;35.46
64544;BME280;50936;51.660;5.616;2023-06-14T01:13:54;101130.44;;;26.41;35.60
64544;BME280;50936;51.660;5.616;2023-06-14T01:16:23;101125.94;;;26.40;35.63
64544;BME280;50936;51.660;5.616;2023-06-14T01:18:52;101124.88;;;26.41;35.42
64544;BME280;50936;51.660;5.616;2023-06-14T01:21:24;101130.63;;;26.40;35.15
64544;BME280;50936;51.660;5.616;2023-06-14T01:23:52;101126.97;;;26.39;35.64
64544;BME280;50936;51.660;5.616;2023-06-14T01:26:25;101128.91;;;26.39;35.60
64544;BME280;50936;51.660;5.616;2023-06-14T01:28:55;101128.69;;;26.40;35.17
64544;BME280;50936;51.660;5.616;2023-06-14T01:31:25;101129.75;;;26.39;35.47
64544;BME280;50936;51.660;5.616;2023-06-14T01:33:53;101125.09;;;26.40;35.30
64544;BME280;50936;51.660;5.616;2023-06-14T01:36:22;101126.13;;;26.39;35.40
64544;BME280;50936;51.660;5.616;2023-06-14T01:38:53;101126.13;;;26.39;35.15
64544;BME280;50936;51.660;5.616;2023-06-14T01:41:20;101129.09;;;26.37;35.18
64544;BME280;50936;51.660;5.616;2023-06-14T01:43:48;101136.38;;;26.38;35.36
64544;BME280;50936;51.660;5.616;2023-06-14T01:46:16;101129.97;;;26.38;34.96
64544;BME280;50936;51.660;5.616;2023-06-14T01:48:44;101136.38;;;26.38;35.17
64544;BME280;50936;51.660;5.616;2023-06-14T01:51:11;101129.09;;;26.37;35.06
64544;BME280;50936;51.660;5.616;2023-06-14T01:53:38;101124.63;;;26.36;35.28
64544;BME280;50936;51.660;5.616;2023-06-14T01:56:05;101125.69;;;26.35;35.28
64544;BME280;50936;51.660;5.616;2023-06-14T01:58:32;101121.88;;;26.36;35.31
64544;BME280;50936;51.660;5.616;2023-06-14T02:01:00;101122.91;;;26.35;35.26
64544;BME280;50936;51.660;5.616;2023-06-14T02:03:27;101124.00;;;26.34;35.30
64544;BME280;50936;51.660;5.616;2023-06-14T02:05:54;101119.31;;;26.35;35.18
64544;BME280;50936;51.660;5.616;2023-06-14T02:08:22;101124.84;;;26.35;35.18
64544;BME280;50936;51.660;5.616;2023-06-14T02:10:50;101126.09;;;26.32;35.10
64544;BME280;50936;51.660;5.616;2023-06-14T02:13:16;101116.09;;;26.31;35.10
64544;BME280;50936;51.660;5.616;2023-06-14T02:15:43;101124.59;;;26.29;35.02
64544;BME280;50936;51.660;5.616;2023-06-14T02:18:12;101122.66;;;26.30;35.12
64544;BME280;50936;51.660;5.616;2023-06-14T02:20:39;101120.97;;;26.29;35.24
64544;BME280;50936;51.660;5.616;2023-06-14T02:23:06;101119.25;;;26.28;35.23
64544;BME280;50936;51.660;5.616;2023-06-14T02:25:34;101116.47;;;26.28;35.20
64544;BME280;50936;51.660;5.616;2023-06-14T02:28:02;101123.09;;;26.27;35.09
64544;BME280;50936;51.660;5.616;2023-06-14T02:30:30;101122.03;;;26.28;35.33
64544;BME280;50936;51.660;5.616;2023-06-14T02:32:57;101128.63;;;26.27;35.38
64544;BME280;50936;51.660;5.616;2023-06-14T02:35:25;101136.06;;;26.26;35.47
64544;BME280;50936;51.660;5.616;2023-06-14T02:37:55;101122.44;;;26.25;35.34
64544;BME280;50936;51.660;5.616;2023-06-14T02:40:22;101129.88;;;26.24;35.25
64544;BME280;50936;51.660;5.616;2023-06-14T02:42:49;101132.84;;;26.23;35.31
64544;BME280;50936;51.660;5.616;2023-06-14T02:45:17;101132.19;;;26.21;35.45
64544;BME280;50936;51.660;5.616;2023-06-14T02:47:43;101134.97;;;26.21;35.35
64544;BME280;50936;51.660;5.616;2023-06-14T02:50:12;101134.97;;;26.21;35.45
64544;BME280;50936;51.660;5.616;2023-06-14T02:52:39;101133.28;;;26.20;35.62
64544;BME280;50936;51.660;5.616;2023-06-14T02:55:08;101142.63;;;26.19;35.46
64544;BME280;50936;51.660;5.616;2023-06-14T02:57:37;101140.03;;;26.17;35.38
64544;BME280;50936;51.660;5.616;2023-06-14T03:00:06;101139.19;;;26.17;35.52
64544;BME280;50936;51.660;5.616;2023-06-14T03:02:36;101138.34;;;26.16;35.53
64544;BME280;50936;51.660;5.616;2023-06-14T03:05:03;101140.03;;;26.17;35.46
64544;BME280;50936;51.660;5.616;2023-06-14T03:07:34;101131.94;;;26.16;35.53
64544;BME280;50936;51.660;5.616;2023-06-14T03:10:03;101145.78;;;26.16;35.37
64544;BME280;50936;51.660;5.616;2023-06-14T03:12:30;101142.16;;;26.15;35.40
64544;BME280;50936;51.660;5.616;2023-06-14T03:14:57;101150.28;;;26.17;35.64
64544;BME280;50936;51.660;5.616;2023-06-14T03:17:31;101156.19;;;26.13;35.46
64544;BME280;50936;51.660;5.616;2023-06-14T03:20:02;101142.38;;;26.13;35.69
64544;BME280;50936;51.660;5.616;2023-06-14T03:22:30;101150.66;;;26.13;35.65
64544;BME280;50936;51.660;5.616;2023-06-14T03:24:58;101148.97;;;26.12;35.48
64544;BME280;50936;51.660;5.616;2023-06-14T03:27:27;101154.50;;;26.12;35.48
64544;BME280;50936;51.660;5.616;2023-06-14T03:29:55;101152.78;;;26.11;35.69
64544;BME280;50936;51.660;5.616;2023-06-14T03:32:22;101154.50;;;26.12;35.76
64544;BME280;50936;51.660;5.616;2023-06-14T03:34:49;101159.19;;;26.12;35.69
64544;BME280;50936;51.660;5.616;2023-06-14T03:37:20;101152.78;;;26.11;35.59
64544;BME280;50936;51.660;5.616;2023-06-14T03:39:47;101161.97;;;26.12;35.53
64544;BME280;50936;51.660;5.616;2023-06-14T03:42:19;101156.19;;;26.07;35.65
64544;BME280;50936;51.660;5.616;2023-06-14T03:44:47;101163.41;;;26.08;35.76
64544;BME280;50936;51.660;5.616;2023-06-14T03:47:14;101165.31;;;26.07;35.90
64544;BME280;50936;51.660;5.616;2023-06-14T03:49:41;101155.97;;;26.08;35.51
64544;BME280;50936;51.660;5.616;2023-06-14T03:52:09;101164.28;;;26.08;35.66
64544;BME280;50936;51.660;5.616;2023-06-14T03:54:37;101174.09;;;26.11;35.94
64544;BME280;50936;51.660;5.616;2023-06-14T03:57:08;101168.75;;;26.09;35.64
64544;BME280;50936;51.660;5.616;2023-06-14T03:59:36;101169.81;;;26.08;35.96
64544;BME280;50936;51.660;5.616;2023-06-14T04:02:04;101166.38;;;26.06;35.77
64544;BME280;50936;51.660;5.616;2023-06-14T04:04:32;101183.84;;;26.07;35.55
64544;BME280;50936;51.660;5.616;2023-06-14T04:06:59;101180.44;;;26.05;35.90
64544;BME280;50936;51.660;5.616;2023-06-14T04:09:27;101175.75;;;26.05;35.71
64544;BME280;50936;51.660;5.616;2023-06-14T04:11:54;101188.50;;;26.06;35.89
64544;BME280;50936;51.660;5.616;2023-06-14T04:14:23;101185.97;;;26.05;35.83
64544;BME280;50936;51.660;5.616;2023-06-14T04:16:50;101188.50;;;26.06;35.68
64544;BME280;50936;51.660;5.616;2023-06-14T04:19:19;101184.03;;;26.05;35.95
64544;BME280;50936;51.660;5.616;2023-06-14T04:21:46;101187.84;;;26.04;35.59
64544;BME280;50936;51.660;5.616;2023-06-14T04:24:14;101190.63;;;26.04;35.73
64544;BME280;50936;51.660;5.616;2023-06-14T04:26:44;101183.41;;;26.03;35.82
64544;BME280;50936;51.660;5.616;2023-06-14T04:29:13;101183.41;;;26.03;35.65
64544;BME280;50936;51.660;5.616;2023-06-14T04:31:54;101185.28;;;26.03;35.56
64544;BME280;50936;51.660;5.616;2023-06-14T04:34:23;101195.50;;;26.02;35.78
64544;BME280;50936;51.660;5.616;2023-06-14T04:36:53;101202.13;;;26.01;35.95
64544;BME280;50936;51.660;5.616;2023-06-14T04:39:27;101202.13;;;26.01;35.59
64544;BME280;50936;51.660;5.616;2023-06-14T04:41:54;101195.25;;;25.97;35.35
64544;BME280;50936;51.660;5.616;2023-06-14T04:44:24;101199.84;;;25.90;35.13
64544;BME280;50936;51.660;5.616;2023-06-14T04:46:57;101205.50;;;25.82;34.89
64544;BME280;50936;51.660;5.616;2023-06-14T04:49:25;101201.84;;;25.74;34.90
64544;BME280;50936;51.660;5.616;2023-06-14T04:51:56;101203.00;;;25.65;34.73
64544;BME280;50936;51.660;5.616;2023-06-14T04:54:28;101198.78;;;25.48;35.05
64544;BME280;50936;51.660;5.616;2023-06-14T04:56:58;101200.00;;;25.24;35.12
64544;BME280;50936;51.660;5.616;2023-06-14T04:59:26;101202.91;;;25.01;35.17
64544;BME280;50936;51.660;5.616;2023-06-14T05:01:53;101196.63;;;24.92;35.19
64544;BME280;50936;51.660;5.616;2023-06-14T05:04:21;101203.00;;;24.77;35.14
64544;BME280;50936;51.660;5.616;2023-06-14T05:06:49;101211.00;;;24.57;35.41
64544;BME280;50936;51.660;5.616;2023-06-14T05:09:17;101206.31;;;24.43;35.89
64544;BME280;50936;51.660;5.616;2023-06-14T05:11:44;101208.97;;;24.36;35.61
64544;BME280;50936;51.660;5.616;2023-06-14T05:14:12;101219.31;;;24.19;35.61
64544;BME280;50936;51.660;5.616;2023-06-14T05:16:39;101207.69;;;24.09;36.13
64544;BME280;50936;51.660;5.616;2023-06-14T05:19:06;101210.41;;;23.94;36.09
64544;BME280;50936;51.660;5.616;2023-06-14T05:21:33;101214.47;;;23.83;36.28
64544;BME280;50936;51.660;5.616;2023-06-14T05:24:07;101218.66;;;23.79;36.30
64544;BME280;50936;51.660;5.616;2023-06-14T05:26:35;101218.31;;;23.74;36.36
64544;BME280;50936;51.660;5.616;2023-06-14T05:29:02;101220.56;;;23.71;36.87
64544;BME280;50936;51.660;5.616;2023-06-14T05:31:30;101224.00;;;23.73;36.76
64544;BME280;50936;51.660;5.616;2023-06-14T05:33:58;101224.75;;;23.67;36.94
64544;BME280;50936;51.660;5.616;2023-06-14T05:36:25;101218.97;;;23.53;37.09
64544;BME280;50936;51.660;5.616;2023-06-14T05:38:52;101230.56;;;23.49;37.30
64544;BME280;50936;51.660;5.616;2023-06-14T05:41:27;101227.47;;;23.43;37.17
64544;BME280;50936;51.660;5.616;2023-06-14T05:43:56;101231.31;;;23.34;37.26
64544;BME280;50936;51.660;5.616;2023-06-14T05:46:23;101230.66;;;23.32;37.10
64544;BME280;50936;51.660;5.616;2023-06-14T05:48:54;101228.66;;;23.18;37.38
64544;BME280;50936;51.660;5.616;2023-06-14T05:51:22;101234.41;;;23.08;37.95
64544;BME280;50936;51.660;5.616;2023-06-14T05:53:51;101238.69;;;23.02;38.17
64544;BME280;50936;51.660;5.616;2023-06-14T05:56:18;101241.13;;;22.97;38.12
64544;BME280;50936;51.660;5.616;2023-06-14T05:58:46;101242.88;;;22.90;38.23
64544;BME280;50936;51.660;5.616;2023-06-14T06:01:15;101239.44;;;22.88;38.44
64544;BME280;50936;51.660;5.616;2023-06-14T06:03:42;101249.06;;;22.92;38.28
64544;BME280;50936;51.660;5.616;2023-06-14T06:06:13;101249.06;;;22.92;38.50
64544;BME280;50936;51.660;5.616;2023-06-14T06:08:40;101250.47;;;22.88;38.23
64544;BME280;50936;51.660;5.616;2023-06-14T06:11:07;101248.03;;;22.85;38.42
64544;BME280;50936;51.660;5.616;2023-06-14T06:13:35;101240.13;;;22.90;38.49
64544;BME280;50936;51.660;5.616;2023-06-14T06:16:03;101249.22;;;22.99;38.48
64544;BME280;50936;51.660;5.616;2023-06-14T06:18:30;101251.41;;;23.03;38.47
64544;BME280;50936;51.660;5.616;2023-06-14T06:20:57;101260.03;;;23.09;38.65
64544;BME280;50936;51.660;5.616;2023-06-14T06:23:24;101250.19;;;23.14;38.81
64544;BME280;50936;51.660;5.616;2023-06-14T06:25:51;101262.06;;;23.15;38.33
64544;BME280;50936;51.660;5.616;2023-06-14T06:28:18;101260.66;;;23.19;38.44
64544;BME280;50936;51.660;5.616;2023-06-14T06:30:45;101259.63;;;23.20;38.29
64544;BME280;50936;51.660;5.616;2023-06-14T06:33:12;101271.00;;;23.25;38.69
64544;BME280;50936;51.660;5.616;2023-06-14T06:35:40;101271.31;;;23.30;38.60
64544;BME280;50936;51.660;5.616;2023-06-14T06:38:07;101274.00;;;23.38;38.50
64544;BME280;50936;51.660;5.616;2023-06-14T06:40:36;101279.84;;;23.43;38.79
64544;BME280;50936;51.660;5.616;2023-06-14T06:43:02;101281.19;;;23.48;38.43
64544;BME280;50936;51.660;5.616;2023-06-14T06:45:30;101277.03;;;23.52;38.54
64544;BME280;50936;51.660;5.616;2023-06-14T06:47:57;101292.13;;;23.64;38.60
64544;BME280;50936;51.660;5.616;2023-06-14T06:50:24;101288.44;;;23.72;38.31
64544;BME280;50936;51.660;5.616;2023-06-14T06:52:53;101291.53;;;23.77;38.41
64544;BME280;50936;51.660;5.616;2023-06-14T06:55:20;101287.22;;;23.82;38.47
64544;BME280;50936;51.660;5.616;2023-06-14T06:57:47;101292.69;;;23.91;38.56
64544;BME280;50936;51.660;5.616;2023-06-14T07:00:16;101292.44;;;24.00;38.15
64544;BME280;50936;51.660;5.616;2023-06-14T07:02:45;101300.84;;;24.07;38.01
64544;BME280;50936;51.660;5.616;2023-06-14T07:05:12;101302.50;;;24.16;38.38
64544;BME280;50936;51.660;5.616;2023-06-14T07:07:39;101303.81;;;24.20;38.33
64544;BME280;50936;51.660;5.616;2023-06-14T07:10:06;101304.81;;;24.28;38.12
64544;BME280;50936;51.660;5.616;2023-06-14T07:12:34;101304.81;;;24.28;37.95
64544;BME280;50936;51.660;5.616;2023-06-14T07:15:08;101301.47;;;24.32;38.06
64544;BME280;50936;51.660;5.616;2023-06-14T07:17:35;101311.78;;;24.38;37.96
64544;BME280;50936;51.660;5.616;2023-06-14T07:20:03;101313.97;;;24.43;37.76
64544;BME280;50936;51.660;5.616;2023-06-14T07:22:34;101312.56;;;24.47;37.45
64544;BME280;50936;51.660;5.616;2023-06-14T07:25:01;101311.00;;;24.53;37.57
64544;BME280;50936;51.660;5.616;2023-06-14T07:27:28;101322.31;;;24.58;37.71
64544;BME280;50936;51.660;5.616;2023-06-14T07:29:54;101326.63;;;24.61;37.33
64544;BME280;50936;51.660;5.616;2023-06-14T07:32:21;101322.44;;;24.65;37.21
64544;BME280;50936;51.660;5.616;2023-06-14T07:34:48;101321.41;;;24.66;37.07
64544;BME280;50936;51.660;5.616;2023-06-14T07:37:15;101329.28;;;24.69;37.27
64544;BME280;50936;51.660;5.616;2023-06-14T07:39:42;101318.91;;;24.71;37.05
64544;BME280;50936;51.660;5.616;2023-06-14T07:42:09;101317.09;;;24.78;37.23
64544;BME280;50936;51.660;5.616;2023-06-14T07:44:36;101318.47;;;24.82;37.37
64544;BME280;50936;51.660;5.616;2023-06-14T07:47:03;101325.31;;;24.86;36.90
64544;BME280;50936;51.660;5.616;2023-06-14T07:49:30;101320.09;;;24.91;36.24
64544;BME280;50936;51.660;5.616;2023-06-14T07:51:57;101338.84;;;24.96;36.80
64544;BME280;50936;51.660;5.616;2023-06-14T07:54:25;101335.53;;;25.01;36.57
64544;BME280;50936;51.660;5.616;2023-06-14T07:56:53;101338.97;;;25.03;36.63
64544;BME280;50936;51.660;5.616;2023-06-14T07:59:19;101349.44;;;25.07;36.55
64544;BME280;50936;51.660;5.616;2023-06-14T08:01:46;101342.69;;;25.10;36.66
64544;BME280;50936;51.660;5.616;2023-06-14T08:04:14;101338.84;;;25.11;36.87
64544;BME280;50936;51.660;5.616;2023-06-14T08:06:41;101347.81;;;25.13;36.69
64544;BME280;50936;51.660;5.616;2023-06-14T08:09:11;101344.66;;;25.16;36.67
64544;BME280;50936;51.660;5.616;2023-06-14T08:11:39;101343.63;;;25.17;36.77
64544;BME280;50936;51.660;5.616;2023-06-14T08:14:05;101347.44;;;25.16;36.66
64544;BME280;50936;51.660;5.616;2023-06-14T08:16:32;101348.50;;;25.15;36.93
64544;BME280;50936;51.660;5.616;2023-06-14T08:18:59;101347.44;;;25.16;36.77
64544;BME280;50936;51.660;5.616;2023-06-14T08:21:26;101350.00;;;25.17;36.79
64544;BME280;50936;51.660;5.616;2023-06-14T08:23:55;101342.75;;;25.16;37.25
64544;BME280;50936;51.660;5.616;2023-06-14T08:26:22;101348.75;;;25.20;37.02
64544;BME280;50936;51.660;5.616;2023-06-14T08:28:49;101351.53;;;25.20;37.48
64544;BME280;50936;51.660;5.616;2023-06-14T08:31:16;101351.53;;;25.20;37.36
64544;BME280;50936;51.660;5.616;2023-06-14T08:33:43;101349.28;;;25.24;37.45
64544;BME280;50936;51.660;5.616;2023-06-14T08:36:10;101348.06;;;25.26;37.60
64544;BME280;50936;51.660;5.616;2023-06-14T08:38:39;101350.63;;;25.28;37.66
64544;BME280;50936;51.660;5.616;2023-06-14T08:41:06;101346.63;;;25.30;37.66
64544;BME280;50936;51.660;5.616;2023-06-14T08:43:33;101346.63;;;25.30;37.34
64544;BME280;50936;51.660;5.616;2023-06-14T08:46:02;101346.25;;;25.33;37.84
64544;BME280;50936;51.660;5.616;2023-06-14T08:48:30;101347.94;;;25.34;37.42
64544;BME280;50936;51.660;5.616;2023-06-14T08:51:00;101341.38;;;25.35;37.44
64544;BME280;50936;51.660;5.616;2023-06-14T08:53:31;101352.03;;;25.39;37.61
64544;BME280;50936;51.660;5.616;2023-06-14T08:56:05;101349.94;;;25.41;37.69
64544;BME280;50936;51.660;5.616;2023-06-14T08:58:32;101347.19;;;25.41;37.94
64544;BME280;50936;51.660;5.616;2023-06-14T09:01:04;101358.72;;;25.44;38.09
64544;BME280;50936;51.660;5.616;2023-06-14T09:03:31;101347.44;;;25.46;38.15
64544;BME280;50936;51.660;5.616;2023-06-14T09:05:59;101345.56;;;25.46;37.94
64544;BME280;50936;51.660;5.616;2023-06-14T09:08:28;101348.09;;;25.48;38.32
64544;BME280;50936;51.660;5.616;2023-06-14T09:10:57;101343.25;;;25.50;38.02
64544;BME280;50936;51.660;5.616;2023-06-14T09:13:26;101352.59;;;25.49;38.30
64544;BME280;50936;51.660;5.616;2023-06-14T09:15:57;101358.59;;;25.52;38.03
64544;BME280;50936;51.660;5.616;2023-06-14T09:18:34;101354.09;;;25.51;38.36
64544;BME280;50936;51.660;5.616;2023-06-14T09:21:01;101355.66;;;25.54;38.38
64544;BME280;50936;51.660;5.616;2023-06-14T09:23:28;101351.81;;;25.55;38.62
64544;BME280;50936;51.660;5.616;2023-06-14T09:25:54;101348.84;;;25.57;38.30
64544;BME280;50936;51.660;5.616;2023-06-14T09:28:27;101350.59;;;25.58;38.42
64544;BME280;50936;51.660;5.616;2023-06-14T09:30:54;101357.81;;;25.59;38.53
64544;BME280;50936;51.660;5.616;2023-06-14T09:33:21;101350.22;;;25.61;38.48
64544;BME280;50936;51.660;5.616;2023-06-14T09:35:51;101347.44;;;25.61;38.71
64544;BME280;50936;51.660;5.616;2023-06-14T09:38:19;101352.75;;;25.62;38.64
64544;BME280;50936;51.660;5.616;2023-06-14T09:40:46;101350.00;;;25.62;38.64
64544;BME280;50936;51.660;5.616;2023-06-14T09:43:12;101355.34;;;25.64;39.03
64544;BME280;50936;51.660;5.616;2023-06-14T09:45:39;101355.13;;;25.65;38.88
64544;BME280;50936;51.660;5.616;2023-06-14T09:48:07;101354.09;;;25.66;38.82
64544;BME280;50936;51.660;5.616;2023-06-14T09:50:35;101355.81;;;25.67;38.74
64544;BME280;50936;51.660;5.616;2023-06-14T09:53:11;101352.00;;;25.68;39.15
64544;BME280;50936;51.660;5.616;2023-06-14T09:55:40;101363.72;;;25.70;39.27
64544;BME280;50936;51.660;5.616;2023-06-14T09:58:09;101354.75;;;25.68;39.24
64544;BME280;50936;51.660;5.616;2023-06-14T10:00:36;101349.59;;;25.65;38.75
64544;BME280;50936;51.660;5.616;2023-06-14T10:03:13;101353.16;;;25.59;39.06
64544;BME280;50936;51.660;5.616;2023-06-14T10:05:45;101342.66;;;25.54;39.00
64544;BME280;50936;51.660;5.616;2023-06-14T10:08:19;101348.56;;;25.51;39.27
64544;BME280;50936;51.660;5.616;2023-06-14T10:10:47;101337.72;;;25.50;39.58
64544;BME280;50936;51.660;5.616;2023-06-14T10:13:15;101349.16;;;25.47;39.62
64544;BME280;50936;51.660;5.616;2023-06-14T10:15:58;101345.75;;;25.45;39.79
64544;BME280;50936;51.660;5.616;2023-06-14T10:24:13;101344.41;;;25.41;40.54
64544;BME280;50936;51.660;5.616;2023-06-14T10:26:54;101328.88;;;25.40;40.20
64544;BME280;50936;51.660;5.616;2023-06-14T10:32:20;101335.84;;;25.35;40.00
64544;BME280;50936;51.660;5.616;2023-06-14T10:34:55;101343.47;;;25.33;40.37
64544;BME280;50936;51.660;5.616;2023-06-14T10:37:22;101348.13;;;25.33;39.89
64544;BME280;50936;51.660;5.616;2023-06-14T10:39:50;101338.31;;;25.30;39.87
64544;BME280;50936;51.660;5.616;2023-06-14T10:42:17;101344.22;;;25.27;39.69
64544;BME280;50936;51.660;5.616;2023-06-14T10:44:54;101350.81;;;25.26;39.83
64544;BME280;50936;51.660;5.616;2023-06-14T10:47:33;101347.38;;;25.24;39.62
64544;BME280;50936;51.660;5.616;2023-06-14T10:52:32;101351.84;;;25.25;39.97
64544;BME280;50936;51.660;5.616;2023-06-14T10:55:17;101344.22;;;25.27;39.91
64544;BME280;50936;51.660;5.616;2023-06-14T11:00:27;101336.22;;;25.32;39.65
64544;BME280;50936;51.660;5.616;2023-06-14T11:10:56;101341.44;;;25.42;40.23
64544;BME280;50936;51.660;5.616;2023-06-14T11:13:25;101357.66;;;25.45;40.00
64544;BME280;50936;51.660;5.616;2023-06-14T11:15:53;101339.81;;;25.48;39.95
64544;BME280;50936;51.660;5.616;2023-06-14T11:18:21;101348.97;;;25.48;40.27
64544;BME280;50936;51.660;5.616;2023-06-14T11:20:51;101341.53;;;25.49;40.09
64544;BME280;50936;51.660;5.616;2023-06-14T11:23:17;101342.84;;;25.53;40.20
64544;BME280;50936;51.660;5.616;2023-06-14T11:25:50;101352.69;;;25.55;40.18
64544;BME280;50936;51.660;5.616;2023-06-14T11:28:17;101338.69;;;25.57;40.44
64544;BME280;50936;51.660;5.616;2023-06-14T11:30:46;101341.22;;;25.59;40.51
64544;BME280;50936;51.660;5.616;2023-06-14T11:33:17;101338.25;;;25.60;40.13
64544;BME280;50936;51.660;5.616;2023-06-14T11:35:45;101337.22;;;25.61;40.18
64544;BME280;50936;51.660;5.616;2023-06-14T11:38:12;101341.69;;;25.62;40.60
64544;BME280;50936;51.660;5.616;2023-06-14T11:40:39;101334.06;;;25.64;40.45
64544;BME280;50936;51.660;5.616;2023-06-14T11:43:06;101324.72;;;25.65;40.65
64544;BME280;50936;51.660;5.616;2023-06-14T11:45:33;101336.44;;;25.67;40.58
64544;BME280;50936;51.660;5.616;2023-06-14T11:48:00;101331.56;;;25.69;40.57
64544;BME280;50936;51.660;5.616;2023-06-14T11:50:27;101327.75;;;25.70;40.47
64544;BME280;50936;51.660;5.616;2023-06-14T11:52:55;101330.72;;;25.69;40.56
64544;BME280;50936;51.660;5.616;2023-06-14T11:55:23;101333.94;;;25.72;40.80
64544;BME280;50936;51.660;5.616;2023-06-14T11:57:51;101326.50;;;25.73;40.61
64544;BME280;50936;51.660;5.616;2023-06-14T12:00:24;101329.06;;;25.74;40.99
64544;BME280;50936;51.660;5.616;2023-06-14T12:02:55;101331.66;;;25.76;40.59
64544;BME280;50936;51.660;5.616;2023-06-14T12:05:24;101332.50;;;25.77;41.00
64544;BME280;50936;51.660;5.616;2023-06-14T12:07:59;101332.50;;;25.77;40.86
64544;BME280;50936;51.660;5.616;2023-06-14T12:10:27;101338.69;;;25.79;40.91
64544;BME280;50936;51.660;5.616;2023-06-14T12:12:58;101326.59;;;25.80;40.93
64544;BME280;50936;51.660;5.616;2023-06-14T12:15:29;101326.97;;;25.77;40.80
64544;BME280;50936;51.660;5.616;2023-06-14T12:17:57;101339.28;;;25.74;40.95
64544;BME280;50936;51.660;5.616;2023-06-14T12:20:29;101339.97;;;25.76;40.82
64544;BME280;50936;51.660;5.616;2023-06-14T12:22:58;101331.47;;;25.78;41.15
64544;BME280;50936;51.660;5.616;2023-06-14T12:25:30;101336.81;;;25.79;41.27
64544;BME280;50936;51.660;5.616;2023-06-14T12:27:59;101344.03;;;25.80;41.14
64544;BME280;50936;51.660;5.616;2023-06-14T12:30:30;101346.63;;;25.82;41.11
64544;BME280;50936;51.660;5.616;2023-06-14T12:32:57;101339.81;;;25.84;41.15
64544;BME280;50936;51.660;5.616;2023-06-14T12:35:24;101342.41;;;25.86;41.28
64544;BME280;50936;51.660;5.616;2023-06-14T12:37:51;101338.59;;;25.87;41.24
64544;BME280;50936;51.660;5.616;2023-06-14T12:40:21;101335.81;;;25.87;41.49
64544;BME280;50936;51.660;5.616;2023-06-14T12:42:48;101330.94;;;25.89;41.14
64544;BME280;50936;51.660;5.616;2023-06-14T12:45:15;101336.47;;;25.89;41.38
64544;BME280;50936;51.660;5.616;2023-06-14T12:47:42;101332.66;;;25.90;41.43
64544;BME280;50936;51.660;5.616;2023-06-14T12:50:09;101345.44;;;25.91;41.22
64544;BME280;50936;51.660;5.616;2023-06-14T12:52:36;101331.59;;;25.91;41.44
64544;BME280;50936;51.660;5.616;2023-06-14T12:55:06;101336.97;;;25.92;41.41
64544;BME280;50936;51.660;5.616;2023-06-14T12:57:33;101342.50;;;25.92;41.48
64544;BME280;50936;51.660;5.616;2023-06-14T13:00:03;101337.84;;;25.93;41.57
64544;BME280;50936;51.660;5.616;2023-06-14T13:02:31;101340.41;;;25.95;41.26
64544;BME280;50936;51.660;5.616;2023-06-14T13:05:06;101347.44;;;25.97;41.63
64544;BME280;50936;51.660;5.616;2023-06-14T13:07:33;101343.81;;;25.97;41.30
64544;BME280;50936;51.660;5.616;2023-06-14T13:10:00;101334.50;;;25.98;41.45
64544;BME280;50936;51.660;5.616;2023-06-14T13:12:27;101350.91;;;25.99;41.57
64544;BME280;50936;51.660;5.616;2023-06-14T13:14:54;101337.06;;;25.99;41.43
64544;BME280;50936;51.660;5.616;2023-06-14T13:17:20;101345.38;;;25.99;41.46
64544;BME280;50936;51.660;5.616;2023-06-14T13:19:47;101338.75;;;26.00;42.04